Time;durP1;ratioP1;P1;durP2;ratioP2;P2;SDS_P1;SDS_P2;PMS_P1;PMS_P2;Temp;Humidity;BMP_temperature;BMP_pressure;BME280_temperature;BME280_humidity;BME280_pressure;Samples;Min_cycle;Max_cycle;Signal;HPM_P1;HPM_P2
2021/05/06 00:33:00;;;;;;;13.77;4.30;;;;;;;;;;4990377;28;20377;-81
2021/05/06 00:35:27;;;;;;;15.80;4.57;;;;;;;;;;4990985;28;20372;-81
2021/05/06 00:40:25;;;;;;;12.18;4.32;;;;;;;;;;4990817;28;20468;-82
2021/05/06 01:05:08;;;;;;;16.42;4.63;;;;;;;;;;4971400;28;20386;-84
2021/05/06 01:12:33;;;;;;;14.73;4.40;;;;;;;;;;4990249;28;20376;-82
2021/05/06 01:14:59;;;;;;;13.80;4.53;;;;;;;;;;5005406;28;20716;-83
2021/05/06 01:17:25;;;;;;;12.00;3.90;;;;;;;;;;5005370;28;20416;-83
2021/05/06 01:19:51;;;;;;;13.67;4.00;;;;;;;;;;5005454;28;20424;-83
2021/05/06 01:22:17;;;;;;;14.90;3.83;;;;;;;;;;5005263;28;20385;-84
2021/05/06 01:24:47;;;;;;;12.48;4.55;;;;;;;;;;4990596;28;20875;-82
2021/05/06 01:27:18;;;;;;;14.07;3.97;;;;;;;;;;5008914;28;20387;-82
2021/05/06 01:29:55;;;;;;;14.77;4.28;;;;;;;;;;5008938;28;20411;-83
2021/05/06 01:32:33;;;;;;;11.55;3.67;;;;;;;;;;4993849;28;20365;-85
2021/05/06 01:35:03;;;;;;;11.98;3.70;;;;;;;;;;4993702;28;20400;-82
2021/05/06 01:40:41;;;;;;;13.88;3.90;;;;;;;;;;4993872;28;20483;-82
2021/05/06 01:59:24;;;;;;;13.82;4.07;;;;;;;;;;4993363;28;20384;-83
2021/05/06 02:01:50;;;;;;;11.43;3.70;;;;;;;;;;5008566;28;20384;-83
2021/05/06 02:04:16;;;;;;;10.90;3.67;;;;;;;;;;4993432;28;20373;-86
2021/05/06 02:06:42;;;;;;;11.77;3.42;;;;;;;;;;5008240;28;20909;-81
2021/05/06 02:09:08;;;;;;;12.87;4.23;;;;;;;;;;4993031;28;20373;-84
2021/05/06 02:11:34;;;;;;;12.30;4.00;;;;;;;;;;4993255;28;20527;-83
2021/05/06 02:14:00;;;;;;;11.80;3.88;;;;;;;;;;5008318;28;20423;-84
2021/05/06 02:16:37;;;;;;;13.13;3.63;;;;;;;;;;4993454;28;20440;-83
2021/05/06 02:19:04;;;;;;;14.50;3.80;;;;;;;;;;4992867;28;20802;-82
2021/05/06 02:21:31;;;;;;;13.65;4.30;;;;;;;;;;4992989;28;20464;-85
2021/05/06 02:23:56;;;;;;;10.30;3.53;;;;;;;;;;4992980;28;20377;-82
2021/05/06 02:26:23;;;;;;;9.60;3.70;;;;;;;;;;4993085;28;20851;-82
2021/05/06 02:28:49;;;;;;;8.50;3.63;;;;;;;;;;5008119;28;20845;-84
2021/05/06 02:31:15;;;;;;;11.90;3.88;;;;;;;;;;4992605;28;20744;-82
2021/05/06 02:33:41;;;;;;;13.75;4.15;;;;;;;;;;4992883;28;20361;-83
2021/05/06 02:36:08;;;;;;;12.20;4.38;;;;;;;;;;4992436;28;20373;-84
2021/05/06 02:38:34;;;;;;;16.60;4.03;;;;;;;;;;4993124;28;20411;-83
2021/05/06 02:41:00;;;;;;;13.27;3.90;;;;;;;;;;4992490;28;20456;-85
2021/05/06 02:43:26;;;;;;;12.70;3.60;;;;;;;;;;5008134;28;20751;-83
2021/05/06 02:45:52;;;;;;;10.77;4.07;;;;;;;;;;4993247;28;20381;-83
2021/05/06 02:48:18;;;;;;;14.35;4.43;;;;;;;;;;5007780;28;20747;-83
2021/05/06 02:50:49;;;;;;;12.43;4.20;;;;;;;;;;4992472;28;20517;-85
2021/05/06 02:53:19;;;;;;;15.40;4.40;;;;;;;;;;5007805;28;20381;-84
2021/05/06 03:03:49;;;;;;;12.48;4.45;;;;;;;;;;4992436;28;20719;-85
2021/05/06 03:06:21;;;;;;;15.02;4.68;;;;;;;;;;5007169;28;20411;-83
2021/05/06 03:08:51;;;;;;;13.63;4.40;;;;;;;;;;5007097;28;20385;-82
2021/05/06 03:14:22;;;;;;;11.37;4.47;;;;;;;;;;4992019;28;20489;-82
2021/05/06 03:25:06;;;;;;;11.77;4.82;;;;;;;;;;4991785;28;20356;-82
2021/05/06 03:27:34;;;;;;;13.82;4.50;;;;;;;;;;5006677;28;20443;-82
2021/05/06 03:34:35;;;;;;;12.57;4.20;;;;;;;;;;4991793;28;20369;-84
2021/05/06 03:43:28;;;;;;;11.98;4.78;;;;;;;;;;4991382;28;20452;-82
2021/05/06 03:49:01;;;;;;;13.98;4.40;;;;;;;;;;4990800;28;20368;-84
2021/05/06 04:18:51;;;;;;;12.87;4.63;;;;;;;;;;4991009;28;20392;-83
2021/05/06 04:27:08;;;;;;;13.27;4.27;;;;;;;;;;4990951;28;20854;-83
2021/05/06 04:37:42;;;;;;;10.63;3.67;;;;;;;;;;4990988;28;20768;-83
2021/05/06 04:40:33;;;;;;;9.80;3.95;;;;;;;;;;5005980;28;20535;-83
2021/05/06 04:57:13;;;;;;;11.30;3.95;;;;;;;;;;4990614;28;20455;-82
2021/05/06 05:04:53;;;;;;;8.02;3.22;;;;;;;;;;4994314;28;20511;-85
2021/05/06 05:07:35;;;;;;;10.07;3.57;;;;;;;;;;4994479;28;20361;-85
2021/05/06 05:10:21;;;;;;;11.05;3.58;;;;;;;;;;5009647;28;20392;-84
2021/05/06 05:21:15;;;;;;;8.93;3.07;;;;;;;;;;4994359;28;20377;-83
2021/05/06 05:23:48;;;;;;;9.13;3.63;;;;;;;;;;4994359;28;20383;-84
2021/05/06 05:26:15;;;;;;;8.15;3.17;;;;;;;;;;4993715;28;20652;-84
2021/05/06 05:28:41;;;;;;;11.50;4.00;;;;;;;;;;5009033;28;20410;-84
2021/05/06 05:31:07;;;;;;;11.40;3.47;;;;;;;;;;4993824;28;20392;-83
2021/05/06 05:34:02;;;;;;;8.70;3.20;;;;;;;;;;4998137;28;20422;-86
2021/05/06 05:36:21;;;;;;;12.33;3.83;;;;;;;;;;5013306;28;20445;-83
2021/05/06 05:44:07;;;;;;;11.38;3.40;;;;;;;;;;5012582;28;20422;-86
2021/05/06 05:56:52;;;;;;;10.93;3.40;;;;;;;;;;5013034;28;20375;-84
2021/05/06 05:59:18;;;;;;;9.68;3.78;;;;;;;;;;5012256;28;20391;-85
2021/05/06 06:01:44;;;;;;;11.38;3.45;;;;;;;;;;4993348;28;20381;-84
2021/05/06 06:04:10;;;;;;;10.60;3.08;;;;;;;;;;4990134;28;20381;-84
2021/05/06 06:06:36;;;;;;;10.70;3.60;;;;;;;;;;4990267;28;21206;-84
2021/05/06 06:09:02;;;;;;;9.87;3.30;;;;;;;;;;4990553;28;20452;-83
2021/05/06 06:11:31;;;;;;;9.65;3.70;;;;;;;;;;4990827;28;20484;-85
2021/05/06 06:13:57;;;;;;;11.98;3.63;;;;;;;;;;4990403;28;20369;-85
2021/05/06 06:16:26;;;;;;;9.43;3.35;;;;;;;;;;4992063;28;20384;-85
2021/05/06 06:19:00;;;;;;;9.35;3.13;;;;;;;;;;4992066;28;20384;-84
2021/05/06 06:23:53;;;;;;;9.20;3.17;;;;;;;;;;4993284;28;20385;-84
2021/05/06 06:26:19;;;;;;;9.20;3.42;;;;;;;;;;4991681;28;20387;-83
2021/05/06 06:28:47;;;;;;;10.45;2.97;;;;;;;;;;4993019;28;20400;-84
2021/05/06 06:31:18;;;;;;;8.38;3.17;;;;;;;;;;4993137;28;20415;-84
2021/05/06 06:33:44;;;;;;;8.83;3.40;;;;;;;;;;4993354;28;20377;-86
2021/05/06 06:36:11;;;;;;;10.65;3.03;;;;;;;;;;4996580;28;21144;-86
2021/05/06 06:38:37;;;;;;;10.63;3.75;;;;;;;;;;5011434;28;20441;-84
2021/05/06 06:41:04;;;;;;;10.20;3.20;;;;;;;;;;5010968;28;20371;-85
2021/05/06 06:43:31;;;;;;;11.35;3.60;;;;;;;;;;5011969;28;20371;-84
2021/05/06 06:45:58;;;;;;;11.07;3.80;;;;;;;;;;5011393;28;21193;-83
2021/05/06 06:48:24;;;;;;;11.47;3.80;;;;;;;;;;4995217;28;20446;-84
2021/05/06 06:50:50;;;;;;;11.75;3.97;;;;;;;;;;4992384;28;20740;-84
2021/05/06 06:53:17;;;;;;;12.05;4.57;;;;;;;;;;4992638;28;20895;-84
2021/05/06 06:55:43;;;;;;;9.63;3.60;;;;;;;;;;5010627;28;20390;-85
2021/05/06 06:58:09;;;;;;;8.50;3.33;;;;;;;;;;5011605;28;20425;-84
2021/05/06 07:00:35;;;;;;;11.38;3.67;;;;;;;;;;5010114;28;20405;-81
2021/05/06 07:03:01;;;;;;;9.55;3.63;;;;;;;;;;5011342;28;20379;-89
2021/05/06 07:05:27;;;;;;;11.85;3.50;;;;;;;;;;5011930;28;20371;-85
2021/05/06 07:07:53;;;;;;;11.65;3.95;;;;;;;;;;5010369;28;20430;-84
2021/05/06 07:10:19;;;;;;;10.70;4.05;;;;;;;;;;5011749;28;20395;-85
2021/05/06 07:12:45;;;;;;;11.95;3.67;;;;;;;;;;5011566;28;20379;-84
2021/05/06 07:15:11;;;;;;;7.75;3.35;;;;;;;;;;5011303;28;20845;-85
2021/05/06 07:17:37;;;;;;;13.82;3.80;;;;;;;;;;5009478;28;20758;-85
2021/05/06 07:20:04;;;;;;;8.13;3.50;;;;;;;;;;5011865;28;20363;-83
2021/05/06 07:22:30;;;;;;;10.10;3.45;;;;;;;;;;5009359;28;20398;-84
2021/05/06 07:24:56;;;;;;;11.38;4.00;;;;;;;;;;5010179;28;20375;-84
2021/05/06 07:27:22;;;;;;;10.07;3.88;;;;;;;;;;5009993;28;20789;-84
2021/05/06 07:29:48;;;;;;;10.32;4.38;;;;;;;;;;5010134;28;20390;-85
2021/05/06 07:32:14;;;;;;;9.35;3.85;;;;;;;;;;5009628;28;20908;-83
2021/05/06 07:34:40;;;;;;;8.85;3.53;;;;;;;;;;5015327;28;20578;-85
2021/05/06 07:37:06;;;;;;;9.07;4.00;;;;;;;;;;5010147;28;20769;-85
2021/05/06 07:39:32;;;;;;;11.30;3.78;;;;;;;;;;5011362;28;20363;-84
2021/05/06 07:41:58;;;;;;;10.63;3.75;;;;;;;;;;5010651;28;20390;-83
2021/05/06 07:44:23;;;;;;;11.00;3.75;;;;;;;;;;5027443;28;20366;-84
2021/05/06 07:46:49;;;;;;;12.55;3.80;;;;;;;;;;5013142;28;20741;-83
2021/05/06 07:49:15;;;;;;;10.60;3.70;;;;;;;;;;5009911;28;20382;-84
2021/05/06 07:51:41;;;;;;;12.53;4.00;;;;;;;;;;5009311;28;20877;-86
2021/05/06 07:54:09;;;;;;;7.47;3.57;;;;;;;;;;5010584;28;20434;-86
2021/05/06 07:56:35;;;;;;;13.18;3.95;;;;;;;;;;5011611;28;20390;-85
2021/05/06 07:59:01;;;;;;;9.50;3.58;;;;;;;;;;5010639;28;20877;-83
2021/05/06 08:01:27;;;;;;;12.73;4.03;;;;;;;;;;5010521;28;20402;-83
2021/05/06 08:03:53;;;;;;;10.23;3.65;;;;;;;;;;5019356;28;20964;-87
2021/05/06 08:06:20;;;;;;;9.43;3.40;;;;;;;;;;5008808;28;20391;-87
2021/05/06 08:08:46;;;;;;;12.13;3.55;;;;;;;;;;5009168;28;20413;-88
2021/05/06 08:11:12;;;;;;;10.57;3.47;;;;;;;;;;5010475;28;20873;-90
2021/05/06 08:13:38;;;;;;;9.70;3.40;;;;;;;;;;5009872;28;20366;-84
2021/05/06 09:06:05;;;;;;;11.13;3.97;;;;;;;;;;5018199;28;21188;-85
2021/05/06 09:08:38;;;;;;;10.68;4.43;;;;;;;;;;5288467;23;20427;-88
2021/05/06 09:11:04;;;;;;;17.42;5.32;;;;;;;;;;5026184;28;20417;-88
2021/05/06 09:13:31;;;;;;;15.57;5.97;;;;;;;;;;5013715;28;20391;-83
2021/05/06 09:15:57;;;;;;;10.38;5.57;;;;;;;;;;5014686;28;20884;-84
2021/05/06 09:18:36;;;;;;;13.15;6.53;;;;;;;;;;5030374;28;20385;-88
2021/05/06 09:21:02;;;;;;;11.77;5.72;;;;;;;;;;5035280;28;20424;-86
2021/05/06 09:23:28;;;;;;;10.80;5.80;;;;;;;;;;5033771;28;20401;-87
2021/05/06 09:25:54;;;;;;;11.00;6.20;;;;;;;;;;5034021;28;20389;-85
2021/05/06 09:28:21;;;;;;;9.67;5.97;;;;;;;;;;5033622;28;20393;-87
2021/05/06 09:30:56;;;;;;;10.13;5.88;;;;;;;;;;5034929;28;20492;-86
2021/05/06 09:33:35;;;;;;;9.35;6.13;;;;;;;;;;5034605;28;20440;-81
2021/05/06 09:36:18;;;;;;;10.70;6.03;;;;;;;;;;5030724;28;20388;-84
2021/05/06 09:38:51;;;;;;;10.88;6.47;;;;;;;;;;5034427;28;20369;-84
2021/05/06 09:41:19;;;;;;;11.10;6.63;;;;;;;;;;5033579;28;20503;-83
2021/05/06 09:43:45;;;;;;;11.88;6.88;;;;;;;;;;5035300;28;20373;-89
2021/05/06 09:46:25;;;;;;;8.82;6.38;;;;;;;;;;5032226;28;20472;-86
2021/05/06 09:48:57;;;;;;;13.00;7.87;;;;;;;;;;5030635;28;20413;-87
2021/05/06 09:51:33;;;;;;;9.23;7.87;;;;;;;;;;5030243;28;20427;-84
2021/05/06 09:54:00;;;;;;;10.55;7.00;;;;;;;;;;5031631;28;20401;-85
2021/05/06 09:56:26;;;;;;;8.95;7.07;;;;;;;;;;5031798;28;21257;-88
2021/05/06 09:58:56;;;;;;;12.23;6.77;;;;;;;;;;5031696;28;20409;-88
2021/05/06 10:01:23;;;;;;;8.73;5.95;;;;;;;;;;5030674;28;20373;-83
2021/05/06 10:03:49;;;;;;;12.40;6.43;;;;;;;;;;5030408;28;20382;-89
2021/05/06 10:06:19;;;;;;;11.00;6.10;;;;;;;;;;5031530;28;20390;-88
2021/05/06 10:08:46;;;;;;;8.48;5.35;;;;;;;;;;5037349;28;20423;-86
2021/05/06 10:11:14;;;;;;;10.00;5.97;;;;;;;;;;5038132;28;20401;-84
2021/05/06 10:13:42;;;;;;;10.68;5.80;;;;;;;;;;5037488;28;20379;-88
2021/05/06 10:16:09;;;;;;;13.07;6.45;;;;;;;;;;5037347;28;20375;-86
2021/05/06 10:18:38;;;;;;;10.65;4.90;;;;;;;;;;5036539;28;20427;-87
2021/05/06 10:21:05;;;;;;;9.70;5.13;;;;;;;;;;5037485;28;20392;-88
2021/05/06 10:23:31;;;;;;;7.75;5.20;;;;;;;;;;5037431;28;20776;-86
2021/05/06 10:25:57;;;;;;;10.07;5.20;;;;;;;;;;5036989;28;20449;-85
2021/05/06 10:28:23;;;;;;;10.00;5.13;;;;;;;;;;5035907;28;20778;-85
2021/05/06 10:30:49;;;;;;;8.55;5.15;;;;;;;;;;5036719;28;20404;-87
2021/05/06 10:33:26;;;;;;;8.35;5.53;;;;;;;;;;5038597;28;20385;-87
2021/05/06 10:35:52;;;;;;;9.13;5.95;;;;;;;;;;5035455;28;20770;-85
2021/05/06 10:38:18;;;;;;;10.23;6.10;;;;;;;;;;5038193;28;20365;-88
2021/05/06 10:40:45;;;;;;;7.28;6.03;;;;;;;;;;5035884;28;20394;-90
2021/05/06 10:43:18;;;;;;;9.18;5.88;;;;;;;;;;5036629;28;20512;-85
2021/05/06 10:45:54;;;;;;;8.33;6.20;;;;;;;;;;5036590;28;20461;-84
2021/05/06 10:48:20;;;;;;;9.45;6.45;;;;;;;;;;5037558;28;20374;-81
2021/05/06 10:50:46;;;;;;;8.98;6.20;;;;;;;;;;5035444;28;20464;-82
2021/05/06 10:53:25;;;;;;;9.77;6.60;;;;;;;;;;5038052;28;20769;-87
2021/05/06 10:55:53;;;;;;;9.00;6.55;;;;;;;;;;5036131;28;20392;-84
2021/05/06 10:58:26;;;;;;;12.00;7.07;;;;;;;;;;5036250;28;20794;-87
2021/05/06 11:01:04;;;;;;;10.80;7.43;;;;;;;;;;5036259;28;20385;-89
2021/05/06 11:03:31;;;;;;;9.48;7.05;;;;;;;;;;5036847;28;20388;-88
2021/05/06 11:05:58;;;;;;;9.15;7.03;;;;;;;;;;5037371;28;20372;-89
2021/05/06 11:08:24;;;;;;;8.43;7.00;;;;;;;;;;5037411;28;20403;-84
2021/05/06 11:10:50;;;;;;;10.20;7.20;;;;;;;;;;5037175;28;20892;-84
2021/05/06 11:13:17;;;;;;;8.05;6.82;;;;;;;;;;5031522;28;20472;-85
2021/05/06 11:15:44;;;;;;;8.98;7.25;;;;;;;;;;5030275;28;20396;-83
2021/05/06 11:18:29;;;;;;;9.32;6.68;;;;;;;;;;5030330;28;21103;-87
2021/05/06 11:20:56;;;;;;;8.13;6.67;;;;;;;;;;5028779;28;20373;-88
2021/05/06 11:23:25;;;;;;;8.37;6.43;;;;;;;;;;5028853;28;20443;-88
2021/05/06 11:25:52;;;;;;;8.98;6.25;;;;;;;;;;5028723;28;20447;-86
2021/05/06 11:28:18;;;;;;;9.40;6.13;;;;;;;;;;5029924;28;20392;-85
2021/05/06 11:30:45;;;;;;;7.82;5.57;;;;;;;;;;5029005;28;20459;-87
2021/05/06 11:36:03;;;;;;;7.90;5.00;;;;;;;;;;5030470;28;20392;-89
2021/05/06 11:38:38;;;;;;;6.70;5.25;;;;;;;;;;5029034;28;20384;-85
2021/05/06 11:41:13;;;;;;;5.50;5.00;;;;;;;;;;5029111;28;20381;-89
2021/05/06 11:43:42;;;;;;;5.18;4.53;;;;;;;;;;5028965;28;20485;-85
2021/05/06 11:46:12;;;;;;;6.68;4.45;;;;;;;;;;5028848;28;20381;-86
2021/05/06 11:48:42;;;;;;;5.75;4.40;;;;;;;;;;5029100;28;21526;-85
2021/05/06 11:51:09;;;;;;;6.60;4.78;;;;;;;;;;5028657;28;20401;-88
2021/05/06 11:53:36;;;;;;;6.57;4.63;;;;;;;;;;5028216;28;20396;-87
2021/05/06 11:56:14;;;;;;;6.73;5.00;;;;;;;;;;5028496;28;20380;-91
2021/05/06 11:58:41;;;;;;;4.95;4.13;;;;;;;;;;5029227;28;20443;-83
2021/05/06 12:01:09;;;;;;;7.18;4.60;;;;;;;;;;5028231;28;20867;-86
2021/05/06 12:03:37;;;;;;;6.65;4.63;;;;;;;;;;5028008;28;20421;-89
2021/05/06 12:06:03;;;;;;;6.22;4.35;;;;;;;;;;5029732;28;20456;-88
2021/05/06 12:08:46;;;;;;;6.43;4.67;;;;;;;;;;5027455;28;20389;-84
2021/05/06 12:11:13;;;;;;;7.20;4.50;;;;;;;;;;5029666;28;20471;-86
2021/05/06 12:13:41;;;;;;;6.75;4.40;;;;;;;;;;5027913;28;20842;-86
2021/05/06 12:16:10;;;;;;;6.03;4.80;;;;;;;;;;5029642;28;20396;-86
2021/05/06 12:18:36;;;;;;;6.05;4.78;;;;;;;;;;5029421;28;20403;-85
2021/05/06 12:21:06;;;;;;;5.50;4.50;;;;;;;;;;5028116;28;20382;-85
2021/05/06 12:23:32;;;;;;;6.30;4.80;;;;;;;;;;5028040;28;20389;-83
2021/05/06 12:25:58;;;;;;;5.70;4.60;;;;;;;;;;5029101;28;20483;-89
2021/05/06 12:28:24;;;;;;;6.65;4.50;;;;;;;;;;5028180;28;21071;-90
2021/05/06 12:30:58;;;;;;;6.07;4.50;;;;;;;;;;5028219;28;20539;-88
2021/05/06 12:33:32;;;;;;;4.57;3.60;;;;;;;;;;5029286;28;20468;-90
2021/05/06 12:35:58;;;;;;;6.40;3.30;;;;;;;;;;5027343;28;20431;-86
2021/05/06 12:38:24;;;;;;;4.15;3.50;;;;;;;;;;5028342;28;20855;-90
2021/05/06 12:40:52;;;;;;;3.45;3.13;;;;;;;;;;5029066;28;20381;-88
2021/05/06 12:43:23;;;;;;;5.07;3.38;;;;;;;;;;5029493;28;20382;-83
2021/05/06 12:45:59;;;;;;;3.17;2.88;;;;;;;;;;5028997;28;20381;-87
2021/05/06 12:48:35;;;;;;;4.63;3.40;;;;;;;;;;5027581;28;20739;-88
2021/05/06 12:51:04;;;;;;;4.18;3.00;;;;;;;;;;5022895;28;20915;-83
2021/05/06 12:53:30;;;;;;;3.10;2.80;;;;;;;;;;5008557;28;20394;-83
2021/05/06 12:55:57;;;;;;;2.80;2.57;;;;;;;;;;5025194;28;20381;-85
2021/05/06 12:58:30;;;;;;;3.30;3.00;;;;;;;;;;5027728;28;20378;-88
2021/05/06 13:00:57;;;;;;;3.45;2.88;;;;;;;;;;5025535;28;20382;-87
2021/05/06 13:03:44;;;;;;;3.67;2.67;;;;;;;;;;5016488;28;20389;-88
2021/05/06 13:06:18;;;;;;;3.95;2.92;;;;;;;;;;5027541;28;20389;-89
2021/05/06 13:08:46;;;;;;;2.75;2.55;;;;;;;;;;5024026;28;20405;-87
2021/05/06 13:11:14;;;;;;;3.10;2.90;;;;;;;;;;5023961;28;20411;-87
2021/05/06 13:13:45;;;;;;;2.95;2.60;;;;;;;;;;5024628;28;22215;-87
2021/05/06 13:16:18;;;;;;;3.35;2.67;;;;;;;;;;5023405;28;20894;-85
2021/05/06 13:19:01;;;;;;;2.83;2.63;;;;;;;;;;5024365;28;20483;-84
2021/05/06 13:21:27;;;;;;;3.20;2.90;;;;;;;;;;5026946;28;20786;-82
2021/05/06 13:23:53;;;;;;;3.10;2.63;;;;;;;;;;5032255;28;20933;-84
2021/05/06 13:26:33;;;;;;;3.55;3.10;;;;;;;;;;5032652;28;20472;-84
2021/05/06 13:29:00;;;;;;;3.17;2.90;;;;;;;;;;5032762;28;20382;-88
2021/05/06 13:31:31;;;;;;;3.45;2.80;;;;;;;;;;5031245;28;20833;-88
2021/05/06 13:34:14;;;;;;;2.70;2.50;;;;;;;;;;5032720;28;20380;-88
2021/05/06 13:36:41;;;;;;;3.83;2.90;;;;;;;;;;5032916;28;20369;-87
2021/05/06 13:39:08;;;;;;;3.67;3.28;;;;;;;;;;5030560;28;20405;-82
2021/05/06 13:41:35;;;;;;;3.40;2.85;;;;;;;;;;5030595;28;20384;-86
2021/05/06 13:44:05;;;;;;;3.00;2.80;;;;;;;;;;5030899;28;20406;-90
2021/05/06 13:46:33;;;;;;;6.60;2.78;;;;;;;;;;5029508;28;22203;-83
2021/05/06 13:49:00;;;;;;;3.08;2.78;;;;;;;;;;5027454;28;20879;-85
2021/05/06 13:51:26;;;;;;;4.22;3.00;;;;;;;;;;5026890;28;20405;-83
2021/05/06 13:53:53;;;;;;;5.43;2.58;;;;;;;;;;5028341;28;20385;-84
2021/05/06 13:56:19;;;;;;;2.55;2.22;;;;;;;;;;5027359;28;20389;-87
2021/05/06 13:58:46;;;;;;;3.05;2.13;;;;;;;;;;5028099;28;20385;-81
2021/05/06 14:01:13;;;;;;;3.33;2.53;;;;;;;;;;5029073;28;20370;-81
2021/05/06 14:03:39;;;;;;;3.47;2.42;;;;;;;;;;5027058;28;20382;-86
2021/05/06 14:06:06;;;;;;;3.85;2.50;;;;;;;;;;5024430;28;20440;-83
2021/05/06 14:08:32;;;;;;;3.28;2.15;;;;;;;;;;5026726;28;20393;-82
2021/05/06 14:10:59;;;;;;;2.40;2.17;;;;;;;;;;5028637;28;20405;-83
2021/05/06 14:13:25;;;;;;;3.10;2.10;;;;;;;;;;5028297;28;20389;-81
2021/05/06 14:15:52;;;;;;;2.65;2.15;;;;;;;;;;5027935;28;20386;-83
2021/05/06 14:18:17;;;;;;;2.80;2.08;;;;;;;;;;5026648;28;20397;-88
2021/05/06 14:20:44;;;;;;;3.50;1.67;;;;;;;;;;5027998;28;20404;-83
2021/05/06 14:23:11;;;;;;;2.58;2.08;;;;;;;;;;5025963;28;20854;-83
2021/05/06 14:25:37;;;;;;;3.67;1.95;;;;;;;;;;5027087;28;20901;-83
2021/05/06 14:28:04;;;;;;;2.85;2.10;;;;;;;;;;5026305;28;20428;-86
2021/05/06 14:30:30;;;;;;;3.40;1.95;;;;;;;;;;5026069;28;20511;-85
2021/05/06 14:32:56;;;;;;;2.92;1.88;;;;;;;;;;5025875;28;20384;-83
2021/05/06 14:35:22;;;;;;;3.33;1.70;;;;;;;;;;5027797;28;20374;-88
2021/05/06 14:37:48;;;;;;;3.17;2.05;;;;;;;;;;5027562;28;20388;-82
2021/05/06 14:40:14;;;;;;;3.33;1.70;;;;;;;;;;5026505;28;20389;-83
2021/05/06 14:42:40;;;;;;;2.10;1.70;;;;;;;;;;5027748;28;20393;-84
2021/05/06 14:45:08;;;;;;;2.90;1.65;;;;;;;;;;5027248;28;20522;-81
2021/05/06 14:47:36;;;;;;;4.13;2.10;;;;;;;;;;5026269;28;20389;-85
2021/05/06 14:50:02;;;;;;;3.47;2.00;;;;;;;;;;5025875;28;20484;-81
2021/05/06 14:52:28;;;;;;;2.80;2.00;;;;;;;;;;5026213;28;20389;-82
2021/05/06 14:54:54;;;;;;;4.17;1.97;;;;;;;;;;5026181;28;20394;-83
2021/05/06 14:57:20;;;;;;;5.33;2.17;;;;;;;;;;5026128;28;20421;-81
2021/05/06 14:59:46;;;;;;;2.83;1.73;;;;;;;;;;5025361;28;20460;-84
2021/05/06 15:02:12;;;;;;;2.00;1.60;;;;;;;;;;5024586;28;20396;-85
2021/05/06 15:04:38;;;;;;;2.63;1.60;;;;;;;;;;5027741;28;20473;-84
2021/05/06 15:07:04;;;;;;;3.53;1.80;;;;;;;;;;5026607;28;20821;-82
2021/05/06 15:09:30;;;;;;;4.00;1.70;;;;;;;;;;5027369;28;20468;-81
2021/05/06 15:11:56;;;;;;;2.33;1.80;;;;;;;;;;5025802;28;20474;-83
2021/05/06 15:14:23;;;;;;;3.45;2.00;;;;;;;;;;5026689;28;20389;-83
2021/05/06 15:16:49;;;;;;;4.53;2.20;;;;;;;;;;5026947;28;20811;-82
2021/05/06 15:19:15;;;;;;;5.85;2.00;;;;;;;;;;5026841;28;20381;-82
2021/05/06 15:21:42;;;;;;;3.15;1.90;;;;;;;;;;5025365;28;20392;-83
2021/05/06 15:24:08;;;;;;;3.47;1.73;;;;;;;;;;5023123;28;20397;-83
2021/05/06 15:26:36;;;;;;;4.47;2.10;;;;;;;;;;5026299;28;20825;-84
2021/05/06 15:29:02;;;;;;;3.40;1.80;;;;;;;;;;5025071;28;20485;-86
2021/05/06 15:31:28;;;;;;;3.57;2.07;;;;;;;;;;5024959;28;20535;-83
2021/05/06 15:33:54;;;;;;;4.20;2.30;;;;;;;;;;5025177;28;20453;-83
2021/05/06 15:36:20;;;;;;;4.05;2.00;;;;;;;;;;5026458;28;20396;-83
2021/05/06 15:38:46;;;;;;;3.20;1.80;;;;;;;;;;5025700;28;20460;-86
2021/05/06 15:41:12;;;;;;;3.08;1.95;;;;;;;;;;5025242;28;20496;-83
2021/05/06 15:43:38;;;;;;;3.75;1.90;;;;;;;;;;5025648;28;20381;-86
2021/05/06 15:46:06;;;;;;;3.63;2.03;;;;;;;;;;5026314;28;20393;-84
2021/05/06 15:48:32;;;;;;;3.50;2.00;;;;;;;;;;5023938;28;20484;-81
2021/05/06 15:51:00;;;;;;;4.13;1.80;;;;;;;;;;5024389;28;20408;-85
2021/05/06 15:53:27;;;;;;;5.72;1.98;;;;;;;;;;5026240;28;20392;-84
2021/05/06 15:55:54;;;;;;;4.03;1.80;;;;;;;;;;5024532;28;20424;-82
2021/05/06 15:58:20;;;;;;;5.77;1.93;;;;;;;;;;5024590;28;20493;-86
2021/05/06 16:00:46;;;;;;;5.60;1.90;;;;;;;;;;5025351;28;20951;-85
2021/05/06 16:03:15;;;;;;;3.33;1.80;;;;;;;;;;5026803;28;20480;-86
2021/05/06 16:05:46;;;;;;;3.67;1.95;;;;;;;;;;5026410;28;20385;-86
2021/05/06 16:08:12;;;;;;;4.13;2.07;;;;;;;;;;5025643;28;20403;-81
2021/05/06 16:10:50;;;;;;;3.90;2.07;;;;;;;;;;5025664;28;20408;-82
2021/05/06 16:13:16;;;;;;;5.43;2.10;;;;;;;;;;5024921;28;20397;-86
2021/05/06 16:15:42;;;;;;;4.55;2.00;;;;;;;;;;5024611;28;20465;-85
2021/05/06 16:18:08;;;;;;;2.72;1.88;;;;;;;;;;5024650;28;20978;-87
2021/05/06 16:20:41;;;;;;;3.15;1.90;;;;;;;;;;5025087;28;20400;-87
2021/05/06 16:23:11;;;;;;;3.75;1.92;;;;;;;;;;5028042;28;20389;-86
2021/05/06 16:25:41;;;;;;;4.30;2.22;;;;;;;;;;5025469;28;20385;-89
2021/05/06 16:28:07;;;;;;;3.53;1.73;;;;;;;;;;5028956;28;20369;-86
2021/05/06 16:30:34;;;;;;;3.92;1.73;;;;;;;;;;5029240;28;20397;-81
2021/05/06 16:33:03;;;;;;;1.95;1.60;;;;;;;;;;5028002;28;20451;-81
2021/05/06 16:35:32;;;;;;;3.63;1.70;;;;;;;;;;5027335;28;20409;-89
2021/05/06 16:40:36;;;;;;;2.78;1.60;;;;;;;;;;5029486;28;20424;-84
2021/05/06 16:43:14;;;;;;;4.65;1.92;;;;;;;;;;5028414;28;20413;-84
2021/05/06 16:45:42;;;;;;;3.67;1.92;;;;;;;;;;5027464;28;20540;-87
2021/05/06 16:48:12;;;;;;;4.25;1.67;;;;;;;;;;5028789;28;20427;-87
2021/05/06 16:50:38;;;;;;;3.30;2.00;;;;;;;;;;5028268;28;20456;-89
2021/05/06 16:53:05;;;;;;;5.70;2.10;;;;;;;;;;5028647;28;20381;-85
2021/05/06 16:55:31;;;;;;;4.10;1.98;;;;;;;;;;5028971;28;20928;-88
2021/05/06 16:57:57;;;;;;;3.92;2.00;;;;;;;;;;5032950;28;20463;-84
2021/05/06 17:00:23;;;;;;;3.28;1.90;;;;;;;;;;5031062;28;20898;-88
2021/05/06 17:02:50;;;;;;;5.75;2.10;;;;;;;;;;5030683;28;20381;-85
2021/05/06 17:05:16;;;;;;;5.40;1.95;;;;;;;;;;5032544;28;20476;-89
2021/05/06 17:07:46;;;;;;;4.70;2.50;;;;;;;;;;5030421;28;20878;-86
2021/05/06 17:10:12;;;;;;;5.45;4.10;;;;;;;;;;5030532;28;20392;-83
2021/05/06 17:12:38;;;;;;;13.55;10.48;;;;;;;;;;5030056;28;20377;-87
2021/05/06 17:15:05;;;;;;;3.95;2.45;;;;;;;;;;5032292;28;20369;-88
2021/05/06 17:17:31;;;;;;;5.07;1.95;;;;;;;;;;5030938;28;20472;-87
2021/05/06 17:19:57;;;;;;;4.53;2.10;;;;;;;;;;5029985;28;20460;-83
2021/05/06 17:22:23;;;;;;;3.53;1.90;;;;;;;;;;5031022;28;20385;-86
2021/05/06 17:24:49;;;;;;;4.22;2.63;;;;;;;;;;5030931;28;20489;-89
2021/05/06 17:27:15;;;;;;;2.88;1.90;;;;;;;;;;5032123;28;20381;-85
2021/05/06 17:29:41;;;;;;;6.13;2.22;;;;;;;;;;5031602;28;20405;-89
2021/05/06 17:32:07;;;;;;;4.87;2.10;;;;;;;;;;5029548;28;20878;-89
2021/05/06 17:34:33;;;;;;;4.27;1.90;;;;;;;;;;5031536;28;20417;-85
2021/05/06 17:36:59;;;;;;;4.57;2.13;;;;;;;;;;5032025;28;20405;-88
2021/05/06 17:39:25;;;;;;;3.67;1.80;;;;;;;;;;5029710;28;20851;-86
2021/05/06 17:41:51;;;;;;;3.27;1.60;;;;;;;;;;5031779;28;20385;-86
2021/05/06 17:44:18;;;;;;;4.27;1.97;;;;;;;;;;5030771;28;20476;-90
2021/05/06 17:46:44;;;;;;;4.10;2.10;;;;;;;;;;5031558;28;20504;-85
2021/05/06 17:49:11;;;;;;;3.38;2.00;;;;;;;;;;5030872;28;20500;-87
2021/05/06 17:51:37;;;;;;;4.45;1.92;;;;;;;;;;5030291;28;20515;-86
2021/05/06 17:54:03;;;;;;;3.10;1.98;;;;;;;;;;5032128;28;20457;-87
2021/05/06 17:56:29;;;;;;;2.15;1.70;;;;;;;;;;5031594;28;20385;-87
2021/05/06 17:58:55;;;;;;;4.53;1.80;;;;;;;;;;5030465;28;20898;-87
2021/05/06 18:01:23;;;;;;;4.67;2.00;;;;;;;;;;5030861;28;20397;-87
2021/05/06 18:03:50;;;;;;;7.83;5.57;;;;;;;;;;5027535;28;20875;-85
2021/05/06 18:06:18;;;;;;;14.38;11.95;;;;;;;;;;5027096;28;20394;-85
2021/05/06 18:09:03;;;;;;;7.18;5.68;;;;;;;;;;5024837;28;20389;-87
2021/05/06 18:14:04;;;;;;;6.18;4.55;;;;;;;;;;5031868;28;20915;-85
2021/05/06 18:16:30;;;;;;;5.35;3.85;;;;;;;;;;5033499;28;20484;-85
2021/05/06 18:19:05;;;;;;;19.58;14.25;;;;;;;;;;5029845;28;20425;-86
2021/05/06 18:21:32;;;;;;;28.95;22.52;;;;;;;;;;5030208;28;20382;-89
2021/05/06 18:23:58;;;;;;;33.92;25.42;;;;;;;;;;5029703;28;20389;-86
2021/05/06 18:26:24;;;;;;;34.20;25.23;;;;;;;;;;5028976;28;20386;-89
2021/05/06 18:28:51;;;;;;;14.32;10.80;;;;;;;;;;5029738;28;20444;-88
2021/05/06 18:31:17;;;;;;;9.48;6.97;;;;;;;;;;5039007;28;20403;-87
2021/05/06 18:33:43;;;;;;;12.07;6.85;;;;;;;;;;5033433;28;20391;-86
2021/05/06 18:36:09;;;;;;;72.90;13.85;;;;;;;;;;5029181;28;20385;-83
2021/05/06 18:38:35;;;;;;;37.70;9.70;;;;;;;;;;5029737;28;20389;-86
2021/05/06 18:41:04;;;;;;;11.45;5.15;;;;;;;;;;5029446;28;20724;-91
2021/05/06 18:43:30;;;;;;;7.65;3.80;;;;;;;;;;5015355;28;20437;-83
2021/05/06 18:45:56;;;;;;;9.57;5.20;;;;;;;;;;5009935;28;20380;-87
2021/05/06 18:48:22;;;;;;;5.75;3.70;;;;;;;;;;5009902;28;20474;-89
2021/05/06 18:50:48;;;;;;;4.75;3.00;;;;;;;;;;5011002;28;20490;-87
2021/05/06 18:53:14;;;;;;;5.25;3.05;;;;;;;;;;5024597;28;20454;-87
2021/05/06 18:55:41;;;;;;;4.40;2.75;;;;;;;;;;5029517;28;20374;-88
2021/05/06 18:58:11;;;;;;;7.10;2.90;;;;;;;;;;5030397;28;20373;-84
2021/05/06 19:00:38;;;;;;;4.25;2.40;;;;;;;;;;5030919;28;20866;-83
2021/05/06 19:03:09;;;;;;;4.43;2.47;;;;;;;;;;5026176;28;20514;-87